AirNav   Pilot Hours Calculator
 
 576 users online  

NJ00 Ridgefield Park Seaplane Base
Ridgefield Park, New Jersey, USA

GOING TO RIDGEFIELD PARK?


FAA INFORMATION EFFECTIVE 07 NOVEMBER 2019

Location

FAA Identifier: NJ00
Lat/Long: 40-50-45.3590N 074-01-43.5030W
40-50.755983N 074-01.725050W
40.8459331,-74.0287508
(estimated)
Elevation: 0 ft. / 0 m (estimated)
Variation: 13W (1985)
From city: 1 mile S of RIDGEFIELD PARK, NJ
Time zone: UTC -5 (UTC -4 during Daylight Saving Time)
Zip code: 07643

Seaplane Base Operations

Seaplane Base use: Private use. Permission required prior to landing
Control tower: no
ARTCC: NEW YORK CENTER
FSS: MILLVILLE FLIGHT SERVICE STATION
Attendance: JUN-SEP SR-SS, OCT-MAY 0800-1700
Wind indicator: yes
Segmented circle: no

Seaplane Base Communications

WX ASOS at TEB (1.5 nm W): 132.025 (201-393-0855)
WX ASOS at LGA (8 nm SE): PHONE 718-672-6317
WX AWOS-3PT at JRB (9 nm S): 128.175 (212-425-1534)
WX ASOS at EWR (11 nm SW): PHONE 973-621-2892
WX ASOS at CDW (12 nm W): 135.5 (973-575-4417)
WX ASOS at JFK (17 nm SE): PHONE 718-656-0956
WX AWOS-3 at LDJ (17 nm SW): 124.025 (908-862-7383)
WX AWOS-3 at MMU (18 nm W): PHONE 973-290-0135
WX ASOS at HPN (20 nm NE): PHONE 914-288-0216

Nearby radio navigation aids

VOR radial/distance  VOR name  Freq  Var
TEBr107/1.5TETERBORO VOR/DME108.4011W
LGAr309/8.2LA GUARDIA VOR/DME113.1012W
CRIr347/15.3CANARSIE VOR/DME112.3011W
JFKr330/17.3KENNEDY VOR/DME115.9012W
SAXr131/26.6SPARTA VORTAC115.7011W
COLr022/32.6COLTS NECK VOR/DME115.4011W
CMKr230/33.0CARMEL VOR/DME116.6012W
DPKr288/33.1DEER PARK VOR/DME117.7012W
SBJr074/36.1SOLBERG VOR/DME112.9010W
BWZr096/36.1BROADWAY VOR/DME114.2011W
STWr114/39.1STILLWATER VOR/DME109.6011W

 
NDB name  Hdg/Dist  Freq  Var  ID
TORBY074/5.321412WTE - .
CHATHAM084/19.325413WCAT -.-. .- -
BABYLON304/31.127514WBBN -... -... -.

Seaplane Base Services

Fuel available: A

Runway Information

Runway 1W/19W

Dimensions: 5500 x 150 ft. / 1676 x 46 m
Surface: water
RUNWAY 1W  RUNWAY 19W
Traffic pattern: leftright
Obstructions: 50 ft. towers, 1000 ft. from runway, 20:1 slope to clear85 ft. bridge, 1500 ft. from runway, 17:1 slope to clear

Seaplane Base Ownership and Management from official FAA records

Ownership: Privately-owned
Owner: AIRSTAR
15 BERGEN TURNPIKE
RIDGEFIELD PARK, NJ 07660
Phone 201-440-5050
Manager: VAL MAZZUCCA
15 BERGEN TURNPIKE
RIDGEFIELD PARK, NJ 07660
Phone 201-440-5050

Seaplane Base Operational Statistics

Aircraft based on the field: 5
Helicopters: 5
    
Aircraft operations: avg 44/week *
65% local general aviation
22% air taxi
13% transient general aviation
* for 12-month period ending 31 July 1990

Additional Remarks

FOR CD CTC NEW YORK APCH AT 800-645-3206.

Instrument Procedures

There are no published instrument procedures at NJ00.

Some nearby airports with instrument procedures:

KTEB - Teterboro Airport (1 nm W)
KJRA - West 30th St Heliport (6 nm S)
6N5 - East 34th Street Heliport (7 nm SE)
KLGA - LaGuardia Airport (8 nm SE)
KJRB - Downtown Manhattan/Wall Street Heliport (9 nm S)
KEWR - Newark Liberty International Airport (11 nm SW)
KCDW - Essex County Airport (12 nm W)
N07 - Lincoln Park Airport (14 nm NW)
KJFK - John F Kennedy International Airport (17 nm SE)
KLDJ - Linden Airport (17 nm SW)
 
Loc | Ops | Rwys | IFR | FBO | Links
Com | Nav | Svcs | Stats | Notes
Area around NJ00 (Ridgefield Park Seaplane Base)
 
Road maps at: MapQuest Bing Google
 
Aerial photo
No photo
 
Sectional chart

 
Airport distance calculator
Flying to Ridgefield Park Seaplane Base? Find the distance to fly.

From to NJ00

Sunrise and sunset
Times for 22-Nov-2019
 Local
(UTC-5)
 Zulu
(UTC)
Morning civil twilight06:2211:22
Sunrise06:5211:52
Sunset16:3221:32
Evening civil twilight17:0222:02

Current date and time
Zulu (UTC)  22-Nov-2019 07:25:36
Local (UTC-5)  22-Nov-2019 02:25:36
 
METAR
KTEB 
2nm NW 
220651Z AUTO 20008KT 10SM DZ BKN085 OVC110 09/04 A2994 RMK AO2 DZB35 SLP137 P0000 T00890039
KNYC 
5nm SE 
220651Z AUTO 22007KT 190V260 10SM OVC085 09/01 A2997 RMK AO2 SLP140 T00940006 $
KLGA 
8nm SE 
220651Z 21009KT 10SM BKN090 OVC120 10/00 A2995 RMK AO2 SLP141 T01000000
KJRB 
9nm S 
220656Z AUTO 23007KT OVC080 09/03 A2997 RMK AO2 SLP147 T00940033 PWINO
KEWR 
12nm SW 
220651Z 20010KT 10SM OVC080 09/01 A2995 RMK AO2 SLP142 T00890011
KCDW 
12nm W 
220653Z AUTO 23004KT 10SM BKN075 OVC090 09/01 A2993 RMK AO2 SLP142 T00940006
KLDJ 
17nm SW 
220655Z AUTO 00000KT 10SM BKN080 OVC090 09/01 A2996 RMK AO2 T00860006
KJFK 
17nm SE 
220651Z 21009KT 10SM BKN090 OVC140 09/03 A2997 RMK AO2 SLP149 T00890033 $
KMMU 
18nm W 
220655Z AUTO 18004KT 10SM BKN080 OVC100 08/01 A2992 RMK AO2
KHPN 
20nm NE 
220656Z 00000KT 10SM FEW070 SCT090 08/00 A2993 RMK AO2 SLP136 T00830000
TAF
KTEB 
2nm NW 
220526Z 2206/2312 21008KT P6SM FEW050 BKN100 FM220900 22009KT P6SM FEW030 BKN050 BKN100 FM221500 24011G17KT P6SM VCSH SCT025 BKN050 BKN100 TEMPO 2216/2218 6SM -SHRA BKN025 BKN050 FM221900 29013G22KT P6SM SCT030 SCT050 BKN120 FM230000 30012G20KT P6SM FEW050 FM230500 30010KT P6SM SKC FM230800 30007KT P6SM SKC
KLGA 
8nm SE 
220526Z 2206/2312 21010KT P6SM FEW050 BKN100 FM221000 22010G17KT P6SM FEW030 BKN050 BKN100 FM221600 25014G23KT P6SM VCSH SCT025 BKN050 BKN100 TEMPO 2217/2219 6SM -SHRA BKN025 BKN050 FM222000 30016G26KT P6SM SCT030 SCT050 BKN120 FM230000 30018G25KT P6SM FEW050 FM230500 30013G19KT P6SM SKC
KEWR 
12nm SW 
220526Z 2206/2312 21011KT P6SM FEW050 BKN100 FM220900 21011KT P6SM FEW030 BKN050 BKN100 FM221500 25012G20KT P6SM VCSH SCT025 BKN050 BKN100 TEMPO 2216/2218 6SM -SHRA BKN025 BKN050 FM221900 29015G23KT P6SM SCT030 SCT050 BKN120 FM230000 29015G22KT P6SM FEW050 FM230500 29012G18KT P6SM SKC FM230800 29008KT P6SM SKC
KJFK 
17nm SE 
220526Z 2206/2312 21011KT P6SM FEW050 BKN100 FM221000 22012G18KT P6SM FEW030 BKN050 BKN100 FM221600 25015G24KT P6SM VCSH SCT025 BKN050 BKN100 TEMPO 2217/2219 6SM -SHRA BKN025 BKN050 FM222000 29016G26KT P6SM SCT030 SCT050 BKN120 FM230000 30018G25KT P6SM FEW050 FM230500 30013G20KT P6SM SKC
KHPN 
20nm NE 
220526Z 2206/2306 20005KT P6SM FEW050 BKN100 FM221000 22006KT P6SM FEW030 BKN050 BKN100 FM221600 25010G19KT P6SM VCSH SCT025 BKN050 BKN100 TEMPO 2217/2219 6SM -SHRA BKN025 BKN050 FM222000 30014G23KT P6SM SCT030 SCT050 BKN120 FM230000 30013G22KT P6SM FEW050 AMD NOT SKED
NOTAMs
Click for the latest NOTAMs
NOTAMs are issued by the DoD/FAA and will open in a separate window not controlled by AirNav.

 

 
 

Would you like to see your business listed on this page?

 If your business provides an interesting product or service to pilots, flight crews, aircraft, or users of the Ridgefield Park Seaplane Base, you should consider listing it here.  To start the listing process, click on the button below
 
Add a business
 

Other Pages about Ridgefield Park Seaplane Base

Update a link
 
Copyright © AirNav, LLC. All rights reserved. Privacy Policy  Contact